sensor_id;sensor_type;location;lat;lon;timestamp;pressure;altitude;pressure_sealevel;temperature;humidity
31911;BME280;18457;52.432;16.914;2022-09-04T00:01:46;100982.04;;;16.58;50.48
31911;BME280;18457;52.432;16.914;2022-09-04T00:04:29;100982.41;;;16.58;50.72
31911;BME280;18457;52.432;16.914;2022-09-04T00:07:14;100986.94;;;16.69;50.61
31911;BME280;18457;52.432;16.914;2022-09-04T00:09:56;100986.23;;;16.67;50.52
31911;BME280;18457;52.432;16.914;2022-09-04T00:12:37;100981.15;;;16.63;50.71
31911;BME280;18457;52.432;16.914;2022-09-04T00:15:16;100986.42;;;16.63;50.91
31911;BME280;18457;52.432;16.914;2022-09-04T00:17:54;100988.02;;;16.64;50.99
31911;BME280;18457;52.432;16.914;2022-09-04T00:20:33;100985.39;;;16.66;51.20
31911;BME280;18457;52.432;16.914;2022-09-04T00:23:13;100985.80;;;16.55;51.41
31911;BME280;18457;52.432;16.914;2022-09-04T00:25:55;100988.25;;;16.63;51.39
31911;BME280;18457;52.432;16.914;2022-09-04T00:28:33;100993.48;;;16.64;51.25
31911;BME280;18457;52.432;16.914;2022-09-04T00:31:15;100995.73;;;16.63;51.53
31911;BME280;18457;52.432;16.914;2022-09-04T00:33:53;100995.46;;;16.60;51.90
31911;BME280;18457;52.432;16.914;2022-09-04T00:36:31;100991.77;;;16.51;52.06
31911;BME280;18457;52.432;16.914;2022-09-04T00:39:10;100986.84;;;16.42;52.21
31911;BME280;18457;52.432;16.914;2022-09-04T00:41:56;100988.52;;;16.51;52.24
31911;BME280;18457;52.432;16.914;2022-09-04T00:44:50;100987.23;;;16.51;52.23
31911;BME280;18457;52.432;16.914;2022-09-04T00:47:48;100984.95;;;16.39;52.77
31911;BME280;18457;52.432;16.914;2022-09-04T00:50:35;100987.81;;;16.40;52.72
31911;BME280;18457;52.432;16.914;2022-09-04T00:53:28;100984.66;;;16.42;52.80
31911;BME280;18457;52.432;16.914;2022-09-04T00:56:22;100986.52;;;16.41;52.94
31911;BME280;18457;52.432;16.914;2022-09-04T00:59:08;100984.90;;;16.26;53.44
31911;BME280;18457;52.432;16.914;2022-09-04T01:01:46;100984.89;;;16.36;53.30
31911;BME280;18457;52.432;16.914;2022-09-04T01:04:37;100986.80;;;16.25;53.66
31911;BME280;18457;52.432;16.914;2022-09-04T01:07:26;100985.43;;;16.22;53.84
31911;BME280;18457;52.432;16.914;2022-09-04T01:10:36;100980.96;;;16.10;54.37
31911;BME280;18457;52.432;16.914;2022-09-04T01:13:14;100985.23;;;16.08;54.38
31911;BME280;18457;52.432;16.914;2022-09-04T01:15:56;100988.86;;;16.03;54.66
31911;BME280;18457;52.432;16.914;2022-09-04T01:18:36;100991.44;;;15.88;55.13
31911;BME280;18457;52.432;16.914;2022-09-04T01:21:46;100994.13;;;15.80;55.37
31911;BME280;18457;52.432;16.914;2022-09-04T01:24:37;100989.52;;;16.01;54.85
31911;BME280;18457;52.432;16.914;2022-09-04T01:27:17;100986.98;;;16.05;54.93
31911;BME280;18457;52.432;16.914;2022-09-04T01:30:00;100989.85;;;15.77;55.66
31911;BME280;18457;52.432;16.914;2022-09-04T01:32:47;100997.81;;;15.73;55.93
31911;BME280;18457;52.432;16.914;2022-09-04T01:35:29;100999.73;;;15.71;56.05
31911;BME280;18457;52.432;16.914;2022-09-04T01:38:11;100996.57;;;15.88;55.85
31911;BME280;18457;52.432;16.914;2022-09-04T01:40:50;100998.46;;;15.91;55.66
31911;BME280;18457;52.432;16.914;2022-09-04T01:43:24;100997.48;;;15.78;56.00
31911;BME280;18457;52.432;16.914;2022-09-04T01:48:56;100996.66;;;15.65;56.46
31911;BME280;18457;52.432;16.914;2022-09-04T01:51:35;100994.33;;;15.69;56.35
31911;BME280;18457;52.432;16.914;2022-09-04T01:54:32;100992.76;;;15.67;56.59
31911;BME280;18457;52.432;16.914;2022-09-04T01:57:16;100996.25;;;15.55;56.83
31911;BME280;18457;52.432;16.914;2022-09-04T02:00:03;100994.25;;;15.55;56.97
31911;BME280;18457;52.432;16.914;2022-09-04T02:02:51;101000.64;;;15.50;57.26
31911;BME280;18457;52.432;16.914;2022-09-04T02:05:31;100995.52;;;15.39;57.66
31911;BME280;18457;52.432;16.914;2022-09-04T02:08:24;100997.11;;;15.41;57.53
31911;BME280;18457;52.432;16.914;2022-09-04T02:11:05;101001.05;;;15.37;57.79
31911;BME280;18457;52.432;16.914;2022-09-04T02:13:48;100997.09;;;15.31;58.01
31911;BME280;18457;52.432;16.914;2022-09-04T02:16:38;100999.84;;;15.25;58.15
31911;BME280;18457;52.432;16.914;2022-09-04T02:19:22;100995.15;;;15.18;58.43
31911;BME280;18457;52.432;16.914;2022-09-04T02:22:02;101002.54;;;15.26;58.25
31911;BME280;18457;52.432;16.914;2022-09-04T02:24:42;101007.07;;;15.10;58.68
31911;BME280;18457;52.432;16.914;2022-09-04T02:27:23;101006.41;;;15.08;58.92
31911;BME280;18457;52.432;16.914;2022-09-04T02:30:02;101007.30;;;15.03;59.22
31911;BME280;18457;52.432;16.914;2022-09-04T02:32:41;101005.29;;;14.98;59.49
31911;BME280;18457;52.432;16.914;2022-09-04T02:35:21;101001.68;;;15.03;59.31
31911;BME280;18457;52.432;16.914;2022-09-04T02:38:06;100999.84;;;14.98;59.47
31911;BME280;18457;52.432;16.914;2022-09-04T02:40:49;101000.29;;;15.00;59.42
31911;BME280;18457;52.432;16.914;2022-09-04T02:43:29;101001.80;;;14.88;59.87
31911;BME280;18457;52.432;16.914;2022-09-04T02:46:11;100996.41;;;14.91;59.97
31911;BME280;18457;52.432;16.914;2022-09-04T02:48:56;100997.42;;;14.76;60.36
31911;BME280;18457;52.432;16.914;2022-09-04T02:51:44;101002.26;;;14.73;60.58
31911;BME280;18457;52.432;16.914;2022-09-04T02:54:28;101001.11;;;14.74;60.62
31911;BME280;18457;52.432;16.914;2022-09-04T02:57:09;101001.89;;;14.67;60.84
31911;BME280;18457;52.432;16.914;2022-09-04T02:59:57;101002.05;;;14.62;60.97
31911;BME280;18457;52.432;16.914;2022-09-04T03:02:37;101006.35;;;14.59;61.19
31911;BME280;18457;52.432;16.914;2022-09-04T03:05:17;101004.94;;;14.63;61.19
31911;BME280;18457;52.432;16.914;2022-09-04T03:07:55;101007.41;;;14.65;61.11
31911;BME280;18457;52.432;16.914;2022-09-04T03:10:32;101010.30;;;14.54;61.49
31911;BME280;18457;52.432;16.914;2022-09-04T03:13:12;101007.02;;;14.54;61.49
31911;BME280;18457;52.432;16.914;2022-09-04T03:15:47;101007.59;;;14.48;61.92
31911;BME280;18457;52.432;16.914;2022-09-04T03:18:25;101005.95;;;14.29;62.47
31911;BME280;18457;52.432;16.914;2022-09-04T03:21:04;101002.95;;;14.33;62.36
31911;BME280;18457;52.432;16.914;2022-09-04T03:23:43;101003.41;;;14.29;62.45
31911;BME280;18457;52.432;16.914;2022-09-04T03:26:20;101007.35;;;14.19;63.12
31911;BME280;18457;52.432;16.914;2022-09-04T03:29:01;101004.24;;;14.19;62.94
31911;BME280;18457;52.432;16.914;2022-09-04T03:31:47;101005.82;;;14.21;62.96
31911;BME280;18457;52.432;16.914;2022-09-04T03:34:33;101004.58;;;14.14;63.23
31911;BME280;18457;52.432;16.914;2022-09-04T03:37:20;101002.90;;;14.03;63.81
31911;BME280;18457;52.432;16.914;2022-09-04T03:40:07;101001.17;;;14.12;63.53
31911;BME280;18457;52.432;16.914;2022-09-04T03:42:52;101005.39;;;14.11;63.60
31911;BME280;18457;52.432;16.914;2022-09-04T03:45:30;101003.25;;;14.03;63.78
31911;BME280;18457;52.432;16.914;2022-09-04T03:48:15;101005.59;;;14.04;63.85
31911;BME280;18457;52.432;16.914;2022-09-04T03:50:56;101009.16;;;14.07;63.90
31911;BME280;18457;52.432;16.914;2022-09-04T03:53:34;101011.74;;;14.05;64.12
31911;BME280;18457;52.432;16.914;2022-09-04T03:56:38;101019.41;;;14.04;64.09
31911;BME280;18457;52.432;16.914;2022-09-04T03:59:20;101021.70;;;13.93;64.61
31911;BME280;18457;52.432;16.914;2022-09-04T04:02:04;101023.25;;;13.90;64.66
31911;BME280;18457;52.432;16.914;2022-09-04T04:07:40;101022.63;;;13.80;65.27
31911;BME280;18457;52.432;16.914;2022-09-04T04:10:25;101023.08;;;13.70;65.57
31911;BME280;18457;52.432;16.914;2022-09-04T04:13:34;101026.38;;;13.76;65.35
31911;BME280;18457;52.432;16.914;2022-09-04T04:16:22;101025.17;;;13.66;65.91
31911;BME280;18457;52.432;16.914;2022-09-04T04:19:03;101021.98;;;13.77;65.73
31911;BME280;18457;52.432;16.914;2022-09-04T04:21:49;101028.58;;;13.81;65.49
31911;BME280;18457;52.432;16.914;2022-09-04T04:24:41;101034.02;;;13.82;65.72
31911;BME280;18457;52.432;16.914;2022-09-04T04:27:27;101033.74;;;13.72;66.08
31911;BME280;18457;52.432;16.914;2022-09-04T04:30:09;101032.83;;;13.72;66.10
31911;BME280;18457;52.432;16.914;2022-09-04T04:32:59;101038.20;;;13.61;66.69
31911;BME280;18457;52.432;16.914;2022-09-04T04:35:43;101042.84;;;13.64;66.53
31911;BME280;18457;52.432;16.914;2022-09-04T04:38:29;101051.25;;;13.76;66.18
31911;BME280;18457;52.432;16.914;2022-09-04T04:41:14;101051.77;;;13.77;66.38
31911;BME280;18457;52.432;16.914;2022-09-04T04:44:01;101053.12;;;13.73;66.51
31911;BME280;18457;52.432;16.914;2022-09-04T04:46:49;101055.35;;;13.65;66.92
31911;BME280;18457;52.432;16.914;2022-09-04T04:49:43;101056.14;;;13.63;67.09
31911;BME280;18457;52.432;16.914;2022-09-04T04:52:42;101058.50;;;13.62;67.04
31911;BME280;18457;52.432;16.914;2022-09-04T04:55:24;101066.17;;;13.61;67.20
31911;BME280;18457;52.432;16.914;2022-09-04T04:58:25;101063.70;;;13.66;67.07
31911;BME280;18457;52.432;16.914;2022-09-04T05:01:05;101064.07;;;13.71;67.16
31911;BME280;18457;52.432;16.914;2022-09-04T05:03:50;101066.02;;;13.73;67.12
31911;BME280;18457;52.432;16.914;2022-09-04T05:06:32;101074.98;;;13.65;67.44
31911;BME280;18457;52.432;16.914;2022-09-04T05:09:15;101077.48;;;13.59;67.95
31911;BME280;18457;52.432;16.914;2022-09-04T05:11:57;101076.94;;;13.59;67.95
31911;BME280;18457;52.432;16.914;2022-09-04T05:14:44;101075.81;;;13.67;67.68
31911;BME280;18457;52.432;16.914;2022-09-04T05:17:25;101080.02;;;13.73;67.68
31911;BME280;18457;52.432;16.914;2022-09-04T05:20:17;101081.97;;;13.75;67.68
31911;BME280;18457;52.432;16.914;2022-09-04T05:22:59;101080.39;;;13.66;68.03
31911;BME280;18457;52.432;16.914;2022-09-04T05:25:40;101084.42;;;13.71;68.20
31911;BME280;18457;52.432;16.914;2022-09-04T05:28:27;101088.59;;;13.65;68.46
31911;BME280;18457;52.432;16.914;2022-09-04T05:31:15;101090.30;;;13.75;68.15
31911;BME280;18457;52.432;16.914;2022-09-04T05:33:58;101088.38;;;13.86;67.99
31911;BME280;18457;52.432;16.914;2022-09-04T05:36:41;101083.65;;;13.66;68.84
31911;BME280;18457;52.432;16.914;2022-09-04T05:39:23;101085.02;;;13.83;68.58
31911;BME280;18457;52.432;16.914;2022-09-04T05:42:31;101092.23;;;13.91;68.19
31911;BME280;18457;52.432;16.914;2022-09-04T05:45:16;101090.33;;;13.82;68.67
31911;BME280;18457;52.432;16.914;2022-09-04T05:48:00;101090.61;;;13.91;68.52
31911;BME280;18457;52.432;16.914;2022-09-04T05:50:49;101091.45;;;14.00;68.37
31911;BME280;18457;52.432;16.914;2022-09-04T05:53:39;101098.77;;;14.05;68.31
31911;BME280;18457;52.432;16.914;2022-09-04T05:56:26;101099.58;;;14.09;68.51
31911;BME280;18457;52.432;16.914;2022-09-04T05:59:19;101099.73;;;14.16;68.25
31911;BME280;18457;52.432;16.914;2022-09-04T06:02:07;101101.35;;;14.11;68.65
31911;BME280;18457;52.432;16.914;2022-09-04T06:05:10;101107.85;;;14.19;68.61
31911;BME280;18457;52.432;16.914;2022-09-04T06:07:54;101112.56;;;14.33;68.17
31911;BME280;18457;52.432;16.914;2022-09-04T06:10:39;101113.71;;;14.43;68.02
31911;BME280;18457;52.432;16.914;2022-09-04T06:16:26;101121.41;;;14.54;67.94
31911;BME280;18457;52.432;16.914;2022-09-04T06:22:20;101129.17;;;14.68;67.76
31911;BME280;18457;52.432;16.914;2022-09-04T06:25:17;101135.92;;;14.74;67.72
31911;BME280;18457;52.432;16.914;2022-09-04T06:28:21;101136.98;;;14.69;67.94
31911;BME280;18457;52.432;16.914;2022-09-04T06:31:00;101141.86;;;14.82;67.79
31911;BME280;18457;52.432;16.914;2022-09-04T06:33:56;101146.99;;;14.87;67.67
31911;BME280;18457;52.432;16.914;2022-09-04T06:36:57;101143.30;;;14.96;67.87
31911;BME280;18457;52.432;16.914;2022-09-04T06:39:47;101145.76;;;14.98;67.91
31911;BME280;18457;52.432;16.914;2022-09-04T06:42:33;101147.53;;;15.05;67.88
31911;BME280;18457;52.432;16.914;2022-09-04T06:45:20;101147.83;;;15.14;67.61
31911;BME280;18457;52.432;16.914;2022-09-04T06:48:06;101149.34;;;15.18;67.77
31911;BME280;18457;52.432;16.914;2022-09-04T06:50:48;101151.56;;;15.28;67.51
31911;BME280;18457;52.432;16.914;2022-09-04T06:53:35;101150.02;;;15.36;67.16
31911;BME280;18457;52.432;16.914;2022-09-04T06:56:17;101153.70;;;15.48;67.08
31911;BME280;18457;52.432;16.914;2022-09-04T06:59:05;101152.41;;;15.54;67.14
31911;BME280;18457;52.432;16.914;2022-09-04T07:01:46;101156.23;;;15.65;66.94
31911;BME280;18457;52.432;16.914;2022-09-04T07:04:30;101157.64;;;15.71;66.84
31911;BME280;18457;52.432;16.914;2022-09-04T07:07:13;101155.91;;;15.80;66.89
31911;BME280;18457;52.432;16.914;2022-09-04T07:09:51;101155.39;;;15.85;66.62
31911;BME280;18457;52.432;16.914;2022-09-04T07:16:10;101163.82;;;15.99;66.44
31911;BME280;18457;52.432;16.914;2022-09-04T07:18:56;101158.83;;;16.12;66.12
31911;BME280;18457;52.432;16.914;2022-09-04T07:21:37;101169.64;;;16.21;66.08
31911;BME280;18457;52.432;16.914;2022-09-04T07:24:38;101173.48;;;16.30;65.84
31911;BME280;18457;52.432;16.914;2022-09-04T07:27:16;101174.86;;;16.38;65.34
31911;BME280;18457;52.432;16.914;2022-09-04T07:29:59;101178.05;;;16.40;65.35
31911;BME280;18457;52.432;16.914;2022-09-04T07:32:37;101180.48;;;16.44;65.14
31911;BME280;18457;52.432;16.914;2022-09-04T07:35:15;101184.27;;;16.56;64.93
31911;BME280;18457;52.432;16.914;2022-09-04T07:37:55;101185.02;;;16.66;64.40
31911;BME280;18457;52.432;16.914;2022-09-04T07:40:33;101184.48;;;16.75;64.50
31911;BME280;18457;52.432;16.914;2022-09-04T07:43:12;101185.70;;;16.81;64.51
31911;BME280;18457;52.432;16.914;2022-09-04T07:45:59;101183.80;;;16.84;64.19
31911;BME280;18457;52.432;16.914;2022-09-04T07:48:39;101184.89;;;16.93;64.21
31911;BME280;18457;52.432;16.914;2022-09-04T07:51:15;101185.84;;;17.02;63.82
31911;BME280;18457;52.432;16.914;2022-09-04T07:54:18;101186.01;;;17.07;63.30
31911;BME280;18457;52.432;16.914;2022-09-04T07:57:09;101190.13;;;17.14;63.17
31911;BME280;18457;52.432;16.914;2022-09-04T07:59:58;101190.98;;;17.20;63.41
31911;BME280;18457;52.432;16.914;2022-09-04T08:02:59;101197.13;;;17.26;63.24
31911;BME280;18457;52.432;16.914;2022-09-04T08:05:34;101193.46;;;17.35;63.13
31911;BME280;18457;52.432;16.914;2022-09-04T08:08:22;101197.25;;;17.46;62.93
31911;BME280;18457;52.432;16.914;2022-09-04T08:11:10;101204.16;;;17.47;62.59
31911;BME280;18457;52.432;16.914;2022-09-04T08:14:06;101206.22;;;17.51;62.57
31911;BME280;18457;52.432;16.914;2022-09-04T08:16:48;101205.86;;;17.60;62.45
31911;BME280;18457;52.432;16.914;2022-09-04T08:19:28;101208.75;;;17.70;62.03
31911;BME280;18457;52.432;16.914;2022-09-04T08:22:05;101208.37;;;17.79;62.12
31911;BME280;18457;52.432;16.914;2022-09-04T08:25:03;101215.38;;;17.86;62.09
31911;BME280;18457;52.432;16.914;2022-09-04T08:27:55;101216.83;;;17.96;61.63
31911;BME280;18457;52.432;16.914;2022-09-04T08:30:36;101214.74;;;18.06;61.51
31911;BME280;18457;52.432;16.914;2022-09-04T08:33:30;101216.79;;;18.36;66.97
31911;BME280;18457;52.432;16.914;2022-09-04T08:36:18;101218.11;;;18.34;62.13
31911;BME280;18457;52.432;16.914;2022-09-04T08:39:04;101216.79;;;18.35;61.55
31911;BME280;18457;52.432;16.914;2022-09-04T08:42:11;101219.44;;;18.38;61.39
31911;BME280;18457;52.432;16.914;2022-09-04T08:45:10;101222.31;;;18.48;60.91
31911;BME280;18457;52.432;16.914;2022-09-04T08:57:22;101223.62;;;18.96;59.41
31911;BME280;18457;52.432;16.914;2022-09-04T09:00:08;101229.38;;;18.98;59.22
31911;BME280;18457;52.432;16.914;2022-09-04T09:06:14;101231.60;;;19.14;58.86
31911;BME280;18457;52.432;16.914;2022-09-04T09:15:35;101229.45;;;19.56;56.93
31911;BME280;18457;52.432;16.914;2022-09-04T09:18:32;101228.14;;;19.60;57.01
31911;BME280;18457;52.432;16.914;2022-09-04T09:21:14;101228.62;;;19.73;56.90
31911;BME280;18457;52.432;16.914;2022-09-04T09:24:23;101232.42;;;19.81;56.63
31911;BME280;18457;52.432;16.914;2022-09-04T09:27:20;101226.59;;;19.91;56.10
31911;BME280;18457;52.432;16.914;2022-09-04T09:30:06;101232.67;;;20.10;55.12
31911;BME280;18457;52.432;16.914;2022-09-04T09:33:13;101227.40;;;20.09;54.87
31911;BME280;18457;52.432;16.914;2022-09-04T09:39:39;101237.23;;;20.32;54.47
31911;BME280;18457;52.432;16.914;2022-09-04T09:42:47;101237.00;;;20.47;53.09
31911;BME280;18457;52.432;16.914;2022-09-04T09:45:45;101245.02;;;20.62;52.32
31911;BME280;18457;52.432;16.914;2022-09-04T09:48:50;101247.65;;;20.72;52.43
31911;BME280;18457;52.432;16.914;2022-09-04T10:00:46;101244.05;;;20.67;50.56
31911;BME280;18457;52.432;16.914;2022-09-04T10:06:59;101240.00;;;20.95;49.76
31911;BME280;18457;52.432;16.914;2022-09-04T10:10:15;101238.96;;;21.20;49.66
31911;BME280;18457;52.432;16.914;2022-09-04T10:13:15;101229.19;;;21.60;49.04
31911;BME280;18457;52.432;16.914;2022-09-04T10:16:17;101230.77;;;21.82;48.46
31911;BME280;18457;52.432;16.914;2022-09-04T10:19:23;101231.78;;;22.15;47.69
31911;BME280;18457;52.432;16.914;2022-09-04T10:22:15;101228.05;;;22.03;47.23
31911;BME280;18457;52.432;16.914;2022-09-04T10:28:09;101231.14;;;22.22;44.67
31911;BME280;18457;52.432;16.914;2022-09-04T10:31:31;101226.40;;;22.09;43.80
31911;BME280;18457;52.432;16.914;2022-09-04T10:34:18;101221.75;;;21.95;42.62
31911;BME280;18457;52.432;16.914;2022-09-04T10:37:08;101224.58;;;22.37;41.64
31911;BME280;18457;52.432;16.914;2022-09-04T10:39:58;101223.33;;;22.63;41.31
31911;BME280;18457;52.432;16.914;2022-09-04T10:42:57;101220.70;;;22.77;41.68
31911;BME280;18457;52.432;16.914;2022-09-04T10:45:40;101223.42;;;23.09;41.49
31911;BME280;18457;52.432;16.914;2022-09-04T10:54:39;101211.02;;;23.53;40.17
31911;BME280;18457;52.432;16.914;2022-09-04T10:57:31;101209.17;;;23.65;38.41
31911;BME280;18457;52.432;16.914;2022-09-04T11:00:11;101207.64;;;23.88;38.46
31911;BME280;18457;52.432;16.914;2022-09-04T11:03:03;101206.78;;;23.93;37.46
31911;BME280;18457;52.432;16.914;2022-09-04T11:11:59;101208.45;;;24.73;38.18
31911;BME280;18457;52.432;16.914;2022-09-04T11:15:22;101210.66;;;24.79;37.87
31911;BME280;18457;52.432;16.914;2022-09-04T11:18:09;101205.11;;;24.81;37.82
31911;BME280;18457;52.432;16.914;2022-09-04T11:21:13;101211.15;;;25.03;37.90
31911;BME280;18457;52.432;16.914;2022-09-04T11:24:23;101211.83;;;25.01;36.58
31911;BME280;18457;52.432;16.914;2022-09-04T11:30:17;101215.16;;;24.22;36.43
31911;BME280;18457;52.432;16.914;2022-09-04T11:33:21;101212.73;;;23.89;37.61
31911;BME280;18457;52.432;16.914;2022-09-04T11:39:23;101208.77;;;23.68;37.84
31911;BME280;18457;52.432;16.914;2022-09-04T11:42:30;101204.84;;;23.58;37.83
31911;BME280;18457;52.432;16.914;2022-09-04T11:45:26;101199.62;;;23.50;37.68
31911;BME280;18457;52.432;16.914;2022-09-04T11:51:27;101201.33;;;24.21;37.89
31911;BME280;18457;52.432;16.914;2022-09-04T11:54:32;101201.31;;;24.46;37.37
31911;BME280;18457;52.432;16.914;2022-09-04T11:57:13;101202.94;;;24.57;37.06
31911;BME280;18457;52.432;16.914;2022-09-04T12:00:04;101208.78;;;24.84;36.65
31911;BME280;18457;52.432;16.914;2022-09-04T12:05:48;101211.26;;;24.51;36.41
31911;BME280;18457;52.432;16.914;2022-09-04T12:18:11;101210.59;;;23.71;37.88
31911;BME280;18457;52.432;16.914;2022-09-04T12:21:14;101213.52;;;23.72;38.01
31911;BME280;18457;52.432;16.914;2022-09-04T12:24:08;101209.37;;;23.68;37.96
31911;BME280;18457;52.432;16.914;2022-09-04T12:27:05;101202.91;;;23.92;37.64
31911;BME280;18457;52.432;16.914;2022-09-04T12:30:02;101199.23;;;24.09;36.89
31911;BME280;18457;52.432;16.914;2022-09-04T12:32:48;101194.06;;;24.17;36.02
31911;BME280;18457;52.432;16.914;2022-09-04T12:35:35;101196.24;;;24.34;35.84
31911;BME280;18457;52.432;16.914;2022-09-04T12:41:06;101205.16;;;24.49;36.28
31911;BME280;18457;52.432;16.914;2022-09-04T12:43:50;101207.11;;;24.31;36.61
31911;BME280;18457;52.432;16.914;2022-09-04T12:46:38;101201.30;;;24.22;36.53
31911;BME280;18457;52.432;16.914;2022-09-04T12:52:50;101205.89;;;24.41;36.14
31911;BME280;18457;52.432;16.914;2022-09-04T12:55:30;101205.06;;;24.37;36.02
31911;BME280;18457;52.432;16.914;2022-09-04T12:58:14;101201.83;;;24.54;35.86
31911;BME280;18457;52.432;16.914;2022-09-04T13:00:58;101203.20;;;24.58;35.90
31911;BME280;18457;52.432;16.914;2022-09-04T13:03:47;101202.65;;;24.63;35.66
31911;BME280;18457;52.432;16.914;2022-09-04T13:06:29;101204.36;;;24.63;35.59
31911;BME280;18457;52.432;16.914;2022-09-04T13:09:13;101207.48;;;24.79;35.84
31911;BME280;18457;52.432;16.914;2022-09-04T13:11:58;101208.02;;;24.71;36.68
31911;BME280;18457;52.432;16.914;2022-09-04T13:17:54;101197.55;;;24.55;37.53
31911;BME280;18457;52.432;16.914;2022-09-04T13:20:37;101201.89;;;24.56;37.77
31911;BME280;18457;52.432;16.914;2022-09-04T13:23:34;101206.27;;;24.51;37.90
31911;BME280;18457;52.432;16.914;2022-09-04T13:26:28;101211.63;;;24.30;38.08
31911;BME280;18457;52.432;16.914;2022-09-04T13:29:12;101212.98;;;23.99;38.15
31911;BME280;18457;52.432;16.914;2022-09-04T13:35:04;101216.73;;;24.01;38.04
31911;BME280;18457;52.432;16.914;2022-09-04T13:38:02;101219.39;;;23.97;38.12
31911;BME280;18457;52.432;16.914;2022-09-04T13:41:04;101218.03;;;23.84;38.03
31911;BME280;18457;52.432;16.914;2022-09-04T13:44:03;101217.60;;;23.85;38.44
31911;BME280;18457;52.432;16.914;2022-09-04T13:46:42;101217.73;;;23.72;38.68
31911;BME280;18457;52.432;16.914;2022-09-04T13:49:18;101217.29;;;23.82;37.96
31911;BME280;18457;52.432;16.914;2022-09-04T13:51:58;101219.14;;;24.04;37.54
31911;BME280;18457;52.432;16.914;2022-09-04T13:54:35;101219.65;;;24.10;36.91
31911;BME280;18457;52.432;16.914;2022-09-04T13:57:14;101217.05;;;24.05;36.40
31911;BME280;18457;52.432;16.914;2022-09-04T13:59:48;101216.26;;;23.97;36.53
31911;BME280;18457;52.432;16.914;2022-09-04T14:02:24;101218.52;;;23.74;36.95
31911;BME280;18457;52.432;16.914;2022-09-04T14:05:03;101218.14;;;23.69;37.23
31911;BME280;18457;52.432;16.914;2022-09-04T14:07:39;101219.70;;;23.70;37.12
31911;BME280;18457;52.432;16.914;2022-09-04T14:10:18;101222.45;;;23.82;37.35
31911;BME280;18457;52.432;16.914;2022-09-04T14:13:03;101223.58;;;23.92;37.31
31911;BME280;18457;52.432;16.914;2022-09-04T14:15:54;101216.23;;;24.03;37.44
31911;BME280;18457;52.432;16.914;2022-09-04T14:18:48;101213.39;;;24.23;37.28
31911;BME280;18457;52.432;16.914;2022-09-04T14:21:35;101214.55;;;24.33;36.32
31911;BME280;18457;52.432;16.914;2022-09-04T14:24:18;101216.55;;;24.44;36.16
31911;BME280;18457;52.432;16.914;2022-09-04T14:26:54;101217.14;;;24.52;36.02
31911;BME280;18457;52.432;16.914;2022-09-04T14:29:41;101217.30;;;24.44;36.08
31911;BME280;18457;52.432;16.914;2022-09-04T14:32:25;101221.89;;;24.21;36.18
31911;BME280;18457;52.432;16.914;2022-09-04T14:35:11;101223.55;;;24.07;36.78
31911;BME280;18457;52.432;16.914;2022-09-04T14:38:00;101222.61;;;24.18;36.49
31911;BME280;18457;52.432;16.914;2022-09-04T14:40:41;101224.52;;;24.28;36.09
31911;BME280;18457;52.432;16.914;2022-09-04T14:43:21;101219.73;;;24.54;35.64
31911;BME280;18457;52.432;16.914;2022-09-04T14:46:11;101221.98;;;24.70;35.23
31911;BME280;18457;52.432;16.914;2022-09-04T14:48:48;101227.16;;;24.91;34.97
31911;BME280;18457;52.432;16.914;2022-09-04T14:51:36;101224.24;;;24.93;34.83
31911;BME280;18457;52.432;16.914;2022-09-04T14:54:15;101223.45;;;24.99;34.09
31911;BME280;18457;52.432;16.914;2022-09-04T14:56:49;101224.48;;;25.05;34.33
31911;BME280;18457;52.432;16.914;2022-09-04T14:59:30;101220.10;;;25.20;34.08
31911;BME280;18457;52.432;16.914;2022-09-04T15:02:17;101219.38;;;25.12;34.49
31911;BME280;18457;52.432;16.914;2022-09-04T15:04:59;101223.55;;;25.26;34.30
31911;BME280;18457;52.432;16.914;2022-09-04T15:10:45;101224.05;;;24.88;34.37
31911;BME280;18457;52.432;16.914;2022-09-04T15:13:35;101227.02;;;25.01;34.36
31911;BME280;18457;52.432;16.914;2022-09-04T15:16:15;101227.31;;;25.15;34.29
31911;BME280;18457;52.432;16.914;2022-09-04T15:19:04;101230.95;;;25.39;34.24
31911;BME280;18457;52.432;16.914;2022-09-04T15:21:43;101229.83;;;25.26;33.79
31911;BME280;18457;52.432;16.914;2022-09-04T15:24:25;101228.11;;;25.12;33.60
31911;BME280;18457;52.432;16.914;2022-09-04T15:27:07;101236.27;;;25.14;33.76
31911;BME280;18457;52.432;16.914;2022-09-04T15:29:58;101236.20;;;24.97;33.73
31911;BME280;18457;52.432;16.914;2022-09-04T15:32:35;101235.03;;;25.00;33.63
31911;BME280;18457;52.432;16.914;2022-09-04T15:35:19;101236.84;;;24.85;33.88
31911;BME280;18457;52.432;16.914;2022-09-04T15:38:04;101240.06;;;24.81;33.93
31911;BME280;18457;52.432;16.914;2022-09-04T15:40:41;101241.08;;;24.56;34.60
31911;BME280;18457;52.432;16.914;2022-09-04T15:43:41;101243.95;;;24.49;35.17
31911;BME280;18457;52.432;16.914;2022-09-04T15:46:19;101243.96;;;24.41;35.30
31911;BME280;18457;52.432;16.914;2022-09-04T15:49:02;101240.90;;;24.24;35.42
31911;BME280;18457;52.432;16.914;2022-09-04T15:51:48;101245.44;;;24.14;35.86
31911;BME280;18457;52.432;16.914;2022-09-04T15:54:27;101244.66;;;23.97;35.83
31911;BME280;18457;52.432;16.914;2022-09-04T15:57:08;101243.58;;;24.05;35.69
31911;BME280;18457;52.432;16.914;2022-09-04T15:59:48;101242.77;;;24.12;35.52
31911;BME280;18457;52.432;16.914;2022-09-04T16:02:28;101248.73;;;24.17;36.04
31911;BME280;18457;52.432;16.914;2022-09-04T16:05:14;101248.19;;;24.22;35.87